Time;durP1;ratioP1;P1;durP2;ratioP2;P2;SDS_P1;SDS_P2;PMS_P1;PMS_P2;Temp;Humidity;BMP_temperature;BMP_pressure;BME280_temperature;BME280_humidity;BME280_pressure;Samples;Min_cycle;Max_cycle;Signal;HPM_P1;HPM_P2
2022/06/25 00:01:59;;;;;;;8.80;5.32;;;;;;;19.70;67.60;99141.50;4937302;29;20051;-76
2022/06/25 00:07:09;;;;;;;20.52;6.57;;;;;;;19.71;67.32;99141.09;4954269;29;20115;-77
2022/06/25 00:09:34;;;;;;;8.52;5.78;;;;;;;19.76;67.18;99134.22;4954411;29;20094;-76
2022/06/25 00:14:44;;;;;;;8.35;5.72;;;;;;;19.76;66.86;99132.16;4954847;29;20126;-77
2022/06/25 00:17:09;;;;;;;9.43;5.70;;;;;;;19.88;66.34;99118.78;4954244;29;20501;-77
2022/06/25 00:19:35;;;;;;;7.63;5.93;;;;;;;20.11;65.68;99121.22;4954326;29;20054;-76
2022/06/25 00:22:01;;;;;;;8.27;5.20;;;;;;;20.44;64.31;99126.81;4954204;29;20027;-76
2022/06/25 00:24:26;;;;;;;10.43;5.68;;;;;;;20.73;63.60;99138.03;4954332;29;20102;-76
2022/06/25 00:26:52;;;;;;;6.80;5.07;;;;;;;20.84;62.69;99118.16;4954395;29;20027;-76
2022/06/25 00:29:17;;;;;;;5.57;5.03;;;;;;;20.93;62.13;99127.00;4969039;28;20070;-77
2022/06/25 00:31:43;;;;;;;5.95;5.07;;;;;;;20.95;62.14;99129.44;4969200;28;20093;-76
2022/06/25 00:34:08;;;;;;;6.47;5.10;;;;;;;21.14;61.36;99126.09;4953640;29;20031;-77
2022/06/25 00:36:42;;;;;;;9.40;5.20;;;;;;;21.12;61.07;99122.88;5165735;27;20210;-77
2022/06/25 00:39:08;;;;;;;5.28;4.75;;;;;;;21.15;61.05;99121.19;5130327;27;20106;-76
2022/06/25 00:41:33;;;;;;;5.88;4.97;;;;;;;21.11;61.07;99124.06;5129343;27;20404;-77
2022/06/25 00:43:59;;;;;;;8.80;5.45;;;;;;;21.10;60.69;99116.75;5130394;28;20019;-76
2022/06/25 00:46:24;;;;;;;7.97;5.93;;;;;;;21.09;61.10;99123.69;5129455;28;20024;-77
2022/06/25 00:48:50;;;;;;;8.30;5.38;;;;;;;21.13;60.85;99117.97;5136927;27;20025;-76
2022/06/25 00:51:15;;;;;;;10.45;5.43;;;;;;;21.16;60.95;99117.97;5150320;27;20022;-76
2022/06/25 00:53:44;;;;;;;9.50;5.88;;;;;;;21.22;60.58;99114.66;5126328;28;20050;-76
2022/06/25 00:56:11;;;;;;;7.20;5.55;;;;;;;21.10;60.56;99102.53;5113803;27;20020;-76
2022/06/25 00:58:42;;;;;;;12.20;5.07;;;;;;;21.20;60.10;99094.38;5109336;28;20046;-77
2022/06/25 01:01:08;;;;;;;12.90;6.30;;;;;;;20.86;61.49;99107.97;5125347;28;20031;-76
2022/06/25 01:03:37;;;;;;;13.90;5.88;;;;;;;20.42;62.75;99103.69;5129611;27;20027;-76
2022/06/25 01:06:04;;;;;;;11.45;5.78;;;;;;;20.20;63.11;99098.88;5129081;27;20026;-76
2022/06/25 01:08:31;;;;;;;6.47;5.50;;;;;;;19.86;64.23;99078.66;5112625;28;20398;-76
2022/06/25 01:10:57;;;;;;;10.70;6.22;;;;;;;19.53;65.71;99095.72;5111686;28;20027;-76
2022/06/25 01:13:23;;;;;;;7.05;5.85;;;;;;;19.34;66.44;99099.78;5129641;28;20487;-76
2022/06/25 01:15:49;;;;;;;6.30;5.70;;;;;;;19.02;67.14;99095.69;5116535;27;20030;-76
2022/06/25 01:18:15;;;;;;;6.97;6.25;;;;;;;18.61;68.93;99085.44;5117444;28;20057;-76
2022/06/25 01:20:44;;;;;;;11.57;6.22;;;;;;;18.60;68.95;99080.97;5090405;27;20024;-76
2022/06/25 01:23:11;;;;;;;9.95;5.90;;;;;;;18.49;69.33;99085.78;5100992;27;20034;-77
2022/06/25 01:25:38;;;;;;;6.78;5.97;;;;;;;18.55;69.52;99091.88;5138720;27;20016;-76
2022/06/25 01:28:04;;;;;;;9.55;6.07;;;;;;;18.65;68.87;99079.78;5129146;28;20032;-76
2022/06/25 01:30:30;;;;;;;16.20;6.43;;;;;;;19.04;67.58;99081.91;5110629;28;20031;-76
2022/06/25 01:32:55;;;;;;;9.50;5.93;;;;;;;19.37;66.84;99093.28;5128890;28;20084;-76
2022/06/25 01:35:21;;;;;;;8.70;5.50;;;;;;;18.75;68.91;99073.31;5119967;27;20042;-76
2022/06/25 01:37:47;;;;;;;9.77;5.50;;;;;;;18.94;68.98;99077.84;5103568;28;20088;-76
2022/06/25 01:40:13;;;;;;;8.68;5.57;;;;;;;19.14;67.92;99080.31;5133993;27;20047;-76
2022/06/25 01:45:22;;;;;;;10.68;5.85;;;;;;;19.52;66.36;99082.75;5128792;27;20062;-77
2022/06/25 01:47:48;;;;;;;14.00;6.40;;;;;;;19.25;66.90;99065.34;5116471;28;20055;-76
2022/06/25 01:50:14;;;;;;;11.20;5.95;;;;;;;19.11;67.10;99068.97;5096375;28;20027;-77
2022/06/25 01:52:40;;;;;;;16.65;6.40;;;;;;;18.54;69.05;99064.78;5096677;28;20039;-76
2022/06/25 01:55:07;;;;;;;9.70;6.40;;;;;;;18.47;69.81;99068.41;5113198;27;20029;-76
2022/06/25 01:57:33;;;;;;;8.73;6.10;;;;;;;18.33;70.08;99067.09;5114463;28;20032;-76
2022/06/25 01:59:58;;;;;;;14.45;6.20;;;;;;;18.24;70.98;99063.84;5110156;28;20020;-76
2022/06/25 02:02:24;;;;;;;8.43;5.80;;;;;;;18.15;71.17;99071.88;5102674;28;20024;-76
2022/06/25 02:04:49;;;;;;;8.80;6.60;;;;;;;17.91;72.39;99091.13;5114305;28;20020;-76
2022/06/25 02:07:15;;;;;;;10.15;6.70;;;;;;;17.78;73.24;99099.09;5113553;28;20028;-76
2022/06/25 02:09:40;;;;;;;8.35;6.55;;;;;;;17.70;73.36;99094.63;5105713;28;20442;-76
2022/06/25 02:12:07;;;;;;;12.75;7.53;;;;;;;17.64;73.35;99088.50;5113166;28;20054;-76
2022/06/25 02:14:32;;;;;;;10.63;7.63;;;;;;;17.59;74.16;99098.19;5114263;28;20037;-76
2022/06/25 02:16:58;;;;;;;7.22;6.53;;;;;;;17.64;74.15;99100.63;5114086;28;20106;-76
2022/06/25 02:19:23;;;;;;;13.10;7.30;;;;;;;17.47;74.61;99085.13;5113339;28;20092;-77
2022/06/25 02:21:49;;;;;;;8.82;7.15;;;;;;;17.48;74.78;99095.25;5114237;28;20027;-76
2022/06/25 02:24:15;;;;;;;24.23;9.38;;;;;;;17.40;74.93;99090.75;5095675;28;20050;-76
2022/06/25 02:26:42;;;;;;;12.88;7.70;;;;;;;17.35;75.21;99105.22;5095789;28;20024;-76
2022/06/25 02:29:07;;;;;;;10.65;7.70;;;;;;;17.04;76.48;99102.53;5114212;28;20055;-76
2022/06/25 02:31:32;;;;;;;13.10;8.30;;;;;;;16.93;77.10;99093.91;5095012;28;20047;-76
2022/06/25 02:33:58;;;;;;;9.77;7.05;;;;;;;16.93;77.38;99110.03;5098403;28;20035;-76
2022/06/25 02:36:24;;;;;;;14.63;8.02;;;;;;;16.88;77.74;99116.84;5113743;27;20043;-76
2022/06/25 02:38:49;;;;;;;12.40;7.43;;;;;;;16.80;77.67;99109.50;5095555;28;20440;-76
2022/06/25 02:41:15;;;;;;;11.35;7.38;;;;;;;16.76;77.99;99117.94;5115298;27;20055;-76
2022/06/25 02:43:40;;;;;;;7.72;6.93;;;;;;;16.62;78.57;99127.03;5119586;27;20443;-76
2022/06/25 02:46:06;;;;;;;8.98;6.93;;;;;;;16.49;79.20;99120.03;5095631;28;20478;-76
2022/06/25 02:48:31;;;;;;;11.23;7.40;;;;;;;16.62;78.90;99129.06;5095636;28;20026;-76
2022/06/25 02:50:57;;;;;;;7.93;6.90;;;;;;;16.60;78.90;99132.25;5119192;27;20034;-76
2022/06/25 02:53:22;;;;;;;10.00;7.10;;;;;;;16.47;79.13;99120.44;5113786;28;20024;-75
2022/06/25 03:01:16;;;;;;;13.45;7.93;;;;;;;16.56;79.79;99128.59;5114017;28;20628;-76
2022/06/25 03:03:41;;;;;;;9.88;6.85;;;;;;;16.56;79.43;99131.41;5113701;28;20028;-76
2022/06/25 03:06:07;;;;;;;10.13;7.22;;;;;;;16.56;79.69;99125.78;5113474;28;20020;-76
2022/06/25 03:08:32;;;;;;;10.98;7.88;;;;;;;16.62;79.55;99143.19;5113822;28;20042;-76
2022/06/25 03:10:58;;;;;;;11.98;7.90;;;;;;;16.51;79.42;99135.38;5116755;27;20023;-76
2022/06/25 03:13:23;;;;;;;13.68;8.25;;;;;;;16.58;79.38;99147.94;5085702;28;20066;-75
2022/06/25 03:15:49;;;;;;;10.05;7.70;;;;;;;16.39;80.12;99135.63;5105968;28;20020;-75
2022/06/25 03:18:14;;;;;;;9.85;7.57;;;;;;;16.40;80.25;99132.41;5094670;28;20132;-76
2022/06/25 03:20:40;;;;;;;10.15;7.20;;;;;;;16.41;80.39;99138.88;5112946;28;20047;-75
2022/06/25 03:23:05;;;;;;;12.57;8.55;;;;;;;16.37;80.60;99138.03;5094614;28;20031;-76
2022/06/25 03:25:31;;;;;;;11.35;8.25;;;;;;;16.22;81.09;99139.84;5094928;28;20103;-76
2022/06/25 03:27:57;;;;;;;11.95;8.50;;;;;;;16.19;81.50;99149.06;5074244;28;20016;-76
2022/06/25 03:30:23;;;;;;;11.75;8.88;;;;;;;16.30;81.74;99144.38;5101945;27;20111;-76
2022/06/25 03:32:48;;;;;;;12.32;7.78;;;;;;;16.26;81.65;99138.69;5111886;28;20398;-75
2022/06/25 03:35:14;;;;;;;11.82;7.72;;;;;;;16.47;81.72;99147.81;5112140;28;20047;-75
2022/06/25 03:37:39;;;;;;;16.05;8.38;;;;;;;16.51;81.41;99137.38;5113053;28;20020;-76
2022/06/25 03:40:05;;;;;;;14.50;7.43;;;;;;;16.61;81.04;99141.56;5112946;27;20466;-75
2022/06/25 03:42:31;;;;;;;10.07;7.35;;;;;;;16.67;81.39;99156.94;5113789;27;20135;-76
2022/06/25 03:44:56;;;;;;;9.93;7.85;;;;;;;16.54;81.80;99147.94;5079061;27;20046;-76
2022/06/25 03:47:22;;;;;;;13.07;8.05;;;;;;;16.71;81.59;99160.63;5112621;28;20019;-75
2022/06/25 03:49:47;;;;;;;17.15;8.98;;;;;;;16.83;81.09;99166.03;5107476;28;20103;-76
2022/06/25 03:52:13;;;;;;;10.65;7.70;;;;;;;16.93;80.76;99158.06;5092575;28;20039;-75
2022/06/25 03:54:39;;;;;;;14.82;8.15;;;;;;;16.89;81.12;99152.38;5109648;28;20102;-76
2022/06/25 03:57:04;;;;;;;23.55;9.20;;;;;;;16.87;81.30;99151.94;5076057;28;20359;-75
2022/06/25 03:59:30;;;;;;;11.60;7.70;;;;;;;17.00;80.96;99148.88;5081407;28;20028;-75
2022/06/25 04:01:55;;;;;;;14.73;8.18;;;;;;;17.15;80.08;99142.19;5092327;28;20051;-75
2022/06/25 04:04:21;;;;;;;14.02;7.63;;;;;;;17.27;79.35;99143.91;5106069;28;20028;-76
2022/06/25 04:06:47;;;;;;;14.07;8.95;;;;;;;17.45;78.50;99165.91;5095147;28;20150;-76
2022/06/25 04:09:13;;;;;;;17.55;7.47;;;;;;;17.56;77.44;99160.34;5091773;28;20032;-76
2022/06/25 04:11:38;;;;;;;13.60;8.25;;;;;;;17.66;77.82;99156.81;5112425;28;20028;-76
2022/06/25 04:14:06;;;;;;;12.25;7.90;;;;;;;17.78;78.10;99159.31;5119814;27;20385;-75
2022/06/25 04:16:32;;;;;;;12.13;8.05;;;;;;;17.82;76.90;99133.91;5112657;28;20028;-75
2022/06/25 04:18:58;;;;;;;12.68;8.38;;;;;;;18.01;76.49;99146.13;5111844;28;20035;-76
2022/06/25 04:21:24;;;;;;;17.08;7.40;;;;;;;18.17;75.99;99143.88;5102588;27;20497;-76
2022/06/25 04:23:49;;;;;;;9.32;6.78;;;;;;;18.27;74.19;99142.31;5115511;27;20147;-75
2022/06/25 04:26:15;;;;;;;12.57;6.60;;;;;;;18.38;74.13;99136.69;5093942;28;20529;-76
2022/06/25 04:31:24;;;;;;;9.95;6.68;;;;;;;18.52;73.44;99128.28;5102309;28;20097;-76
2022/06/25 04:33:51;;;;;;;14.80;6.75;;;;;;;18.75;71.61;99149.00;5090100;28;20095;-75
2022/06/25 04:36:17;;;;;;;9.15;6.28;;;;;;;18.75;70.66;99144.13;5093399;28;20043;-75
2022/06/25 04:38:43;;;;;;;9.82;6.07;;;;;;;18.89;70.48;99142.59;5112185;28;20501;-75
2022/06/25 04:41:08;;;;;;;8.40;6.05;;;;;;;19.03;70.34;99139.00;5090234;28;20052;-75
2022/06/25 04:43:34;;;;;;;14.48;6.43;;;;;;;19.18;69.52;99142.69;5105044;28;20114;-76
2022/06/25 04:45:59;;;;;;;18.52;6.78;;;;;;;19.27;69.51;99133.78;5090231;28;20473;-76
2022/06/25 04:48:25;;;;;;;7.32;6.57;;;;;;;19.31;69.37;99140.28;5116698;28;20055;-76
2022/06/25 04:50:51;;;;;;;8.70;6.53;;;;;;;19.39;69.05;99133.38;5111355;28;20027;-76
2022/06/25 04:53:16;;;;;;;13.90;6.97;;;;;;;19.59;67.85;99130.97;5084891;28;20043;-75
2022/06/25 04:55:42;;;;;;;14.18;7.00;;;;;;;19.56;67.09;99125.31;5109719;28;20027;-76
2022/06/25 04:58:08;;;;;;;13.82;7.18;;;;;;;19.70;67.38;99130.97;5091359;28;20510;-76
2022/06/25 05:00:34;;;;;;;9.82;7.57;;;;;;;19.73;66.45;99130.16;5110870;28;20106;-76
2022/06/25 05:02:59;;;;;;;9.38;6.43;;;;;;;19.84;66.07;99143.53;5101045;28;20032;-74
2022/06/25 05:05:25;;;;;;;12.30;6.68;;;;;;;20.14;64.95;99143.13;5089826;28;20035;-75
2022/06/25 05:07:50;;;;;;;8.25;6.65;;;;;;;20.32;65.17;99139.41;5092832;28;20024;-74
2022/06/25 05:10:16;;;;;;;9.60;7.05;;;;;;;20.33;64.52;99143.88;5104037;28;20042;-74
2022/06/25 05:15:25;;;;;;;8.27;6.72;;;;;;;20.30;64.78;99130.50;5105975;28;20162;-74
2022/06/25 05:17:51;;;;;;;19.55;7.13;;;;;;;20.50;63.56;99145.03;5083525;28;20055;-75
2022/06/25 05:20:16;;;;;;;11.90;6.25;;;;;;;20.67;62.50;99142.56;5103259;28;20032;-75
2022/06/25 05:22:42;;;;;;;11.60;6.22;;;;;;;20.70;61.61;99144.56;5100992;27;20501;-75
2022/06/25 05:25:08;;;;;;;12.00;5.70;;;;;;;20.81;62.27;99147.34;5099484;27;20027;-75
2022/06/25 05:27:33;;;;;;;11.40;6.15;;;;;;;20.96;61.01;99126.22;5087902;28;20036;-75
2022/06/25 05:29:59;;;;;;;13.52;5.68;;;;;;;21.21;60.25;99132.94;5090323;27;20037;-75
2022/06/25 05:32:24;;;;;;;8.77;6.30;;;;;;;21.25;60.06;99136.59;5112338;27;20055;-73
2022/06/25 05:34:50;;;;;;;7.25;6.10;;;;;;;21.27;60.60;99134.94;5106936;27;20485;-72
2022/06/25 05:37:15;;;;;;;11.88;7.07;;;;;;;21.40;60.78;99148.66;5111583;27;20055;-71
2022/06/25 05:39:41;;;;;;;6.40;5.78;;;;;;;21.25;62.31;99143.06;5093976;28;20039;-74
2022/06/25 05:42:07;;;;;;;9.25;6.60;;;;;;;21.13;62.52;99144.38;5108796;28;20119;-71
2022/06/25 05:44:33;;;;;;;16.27;6.85;;;;;;;21.04;63.89;99149.72;5090755;28;20098;-72
2022/06/25 05:46:58;;;;;;;16.08;7.97;;;;;;;21.20;63.36;99148.41;5113926;28;20028;-77
2022/06/25 05:49:24;;;;;;;20.20;6.80;;;;;;;21.30;62.38;99156.06;5112389;28;20035;-73
2022/06/25 05:51:49;;;;;;;11.00;6.07;;;;;;;21.27;61.82;99157.69;5111914;28;20477;-75
2022/06/25 05:54:16;;;;;;;10.50;6.65;;;;;;;21.26;62.15;99155.28;5092941;28;20110;-72
2022/06/25 05:56:41;;;;;;;10.57;7.07;;;;;;;21.20;62.99;99154.09;5112519;28;20023;-74
2022/06/25 05:59:07;;;;;;;10.25;6.70;;;;;;;21.37;62.51;99153.16;5111568;28;20027;-75
2022/06/25 06:01:32;;;;;;;9.77;6.53;;;;;;;21.45;61.55;99151.88;5111602;28;20606;-74
2022/06/25 06:03:58;;;;;;;15.40;6.75;;;;;;;21.52;61.18;99138.84;5109910;28;20066;-74
2022/06/25 06:06:23;;;;;;;12.38;7.25;;;;;;;21.78;60.31;99163.06;5110351;28;20088;-75
2022/06/25 06:08:49;;;;;;;12.68;5.95;;;;;;;21.87;60.50;99166.22;5092831;28;20024;-78
2022/06/25 06:11:14;;;;;;;14.40;6.93;;;;;;;21.88;59.63;99167.03;5111764;28;20035;-74
2022/06/25 06:13:41;;;;;;;27.85;7.07;;;;;;;21.76;60.07;99170.38;5094474;28;20134;-74
2022/06/25 06:16:06;;;;;;;15.80;7.05;;;;;;;21.82;61.11;99178.06;5109779;28;20032;-74
2022/06/25 06:18:32;;;;;;;12.68;7.78;;;;;;;21.63;61.73;99165.19;5089836;28;20406;-74
2022/06/25 06:20:57;;;;;;;7.82;6.75;;;;;;;21.53;61.19;99157.53;5098609;27;20031;-74
2022/06/25 06:23:23;;;;;;;7.57;6.35;;;;;;;21.79;59.45;99173.22;5098400;28;20039;-74
2022/06/25 06:25:49;;;;;;;20.65;6.75;;;;;;;21.94;57.87;99179.56;5090392;28;20130;-73
2022/06/25 06:28:16;;;;;;;9.20;6.50;;;;;;;21.93;57.76;99177.97;5107394;28;20038;-74
2022/06/25 06:30:41;;;;;;;12.60;6.53;;;;;;;21.91;57.71;99177.56;5090156;28;20496;-74
2022/06/25 06:33:07;;;;;;;8.23;6.25;;;;;;;22.09;58.41;99180.25;5110694;28;20042;-74
2022/06/25 06:35:33;;;;;;;8.23;6.35;;;;;;;22.06;56.71;99183.13;5110611;28;20737;-75
2022/06/25 06:37:59;;;;;;;10.63;6.85;;;;;;;22.19;57.82;99187.06;5108737;28;20438;-75
2022/06/25 06:40:24;;;;;;;8.65;6.07;;;;;;;22.25;57.21;99188.25;5110811;28;20039;-75
2022/06/25 06:42:50;;;;;;;8.75;5.32;;;;;;;22.20;56.51;99183.00;5110155;27;20412;-75
2022/06/25 06:45:15;;;;;;;8.55;6.50;;;;;;;22.34;57.12;99186.94;5110613;28;20477;-79
2022/06/25 06:47:41;;;;;;;15.63;5.88;;;;;;;22.39;56.97;99180.78;5109270;28;20036;-80
2022/06/25 06:50:07;;;;;;;9.50;6.82;;;;;;;22.42;56.42;99180.75;5109681;28;20042;-82
2022/06/25 06:52:32;;;;;;;8.32;6.00;;;;;;;22.50;56.43;99178.66;5092486;28;20031;-78
2022/06/25 06:54:59;;;;;;;8.93;6.82;;;;;;;22.48;55.53;99172.56;5090407;28;20121;-86
2022/06/25 06:57:25;;;;;;;14.25;7.35;;;;;;;22.66;56.13;99180.09;5105703;27;20039;-84
2022/06/25 06:59:50;;;;;;;16.63;6.95;;;;;;;22.90;56.04;99168.81;5091208;28;20058;-79
2022/06/25 07:02:16;;;;;;;10.02;6.43;;;;;;;23.00;54.31;99173.56;5110548;28;20032;-80
2022/06/25 07:04:41;;;;;;;13.18;6.90;;;;;;;23.30;55.12;99159.75;5092266;28;20020;-88
2022/06/25 07:07:07;;;;;;;8.63;5.70;;;;;;;23.45;52.48;99148.94;5091005;28;20032;-82
2022/06/25 07:09:32;;;;;;;11.98;6.22;;;;;;;23.76;52.73;99168.81;5091034;28;20043;-81
2022/06/25 07:11:58;;;;;;;8.23;5.53;;;;;;;23.89;50.81;99163.31;5109790;28;20386;-80
2022/06/25 07:14:23;;;;;;;14.10;5.95;;;;;;;24.07;50.92;99165.88;5106530;28;20228;-80
2022/06/25 07:16:49;;;;;;;14.70;5.57;;;;;;;24.10;50.74;99150.72;5090268;28;20046;-79
2022/06/25 07:19:14;;;;;;;17.42;4.88;;;;;;;24.19;48.17;99159.53;5078476;28;20027;-74
2022/06/25 07:21:40;;;;;;;11.90;5.20;;;;;;;24.30;49.15;99161.41;5104024;28;20102;-74
2022/06/25 07:24:06;;;;;;;6.03;4.90;;;;;;;24.44;47.77;99166.81;5088617;28;20523;-73
2022/06/25 07:26:31;;;;;;;6.15;4.53;;;;;;;24.56;48.21;99165.38;5088782;28;20062;-75
2022/06/25 07:28:57;;;;;;;6.90;4.53;;;;;;;24.66;47.23;99167.19;5103959;27;20034;-75
2022/06/25 07:31:23;;;;;;;8.30;4.95;;;;;;;24.89;45.94;99167.59;5106747;28;20027;-75
2022/06/25 07:33:49;;;;;;;4.90;4.40;;;;;;;25.08;46.02;99158.19;5087506;28;20023;-76
2022/06/25 07:36:14;;;;;;;10.68;5.70;;;;;;;25.27;45.79;99147.16;5106900;28;20055;-77
2022/06/25 07:38:40;;;;;;;10.75;4.50;;;;;;;25.47;44.90;99164.25;5108326;28;20441;-76
2022/06/25 07:41:05;;;;;;;6.88;5.13;;;;;;;25.35;45.58;99157.19;5089417;28;20094;-78
2022/06/25 07:43:31;;;;;;;5.45;4.95;;;;;;;25.58;44.92;99148.91;5110771;28;20031;-77
2022/06/25 07:45:58;;;;;;;9.40;5.20;;;;;;;25.57;44.79;99168.13;5094168;28;20522;-79
2022/06/25 07:48:24;;;;;;;7.93;5.22;;;;;;;25.32;45.65;99149.47;5094157;28;20496;-76
2022/06/25 07:53:34;;;;;;;5.80;5.30;;;;;;;25.65;44.63;99161.00;5109790;28;20078;-75
2022/06/25 07:55:59;;;;;;;6.03;5.43;;;;;;;25.85;44.65;99142.91;5112669;28;20051;-78
2022/06/25 07:58:25;;;;;;;7.53;4.40;;;;;;;25.26;44.08;99096.88;5092338;28;20030;-82
2022/06/25 08:00:51;;;;;;;8.75;5.35;;;;;;;25.56;45.02;99148.56;5093411;28;20057;-77
2022/06/25 08:03:17;;;;;;;4.88;4.38;;;;;;;25.53;43.60;99141.66;5112322;28;20428;-78
2022/06/25 08:05:42;;;;;;;8.70;4.47;;;;;;;25.68;42.57;99136.38;5112226;28;20016;-78
2022/06/25 08:08:07;;;;;;;29.67;6.32;;;;;;;25.89;43.88;99148.56;5093180;28;20085;-78
2022/06/25 08:10:34;;;;;;;10.02;5.43;;;;;;;25.87;42.71;99153.91;5094524;28;20029;-80
2022/06/25 08:12:59;;;;;;;6.75;5.00;;;;;;;26.12;41.85;99158.19;5112338;28;20512;-77
2022/06/25 08:15:25;;;;;;;8.73;5.72;;;;;;;26.32;40.60;99132.31;5093368;28;20063;-76
2022/06/25 08:17:51;;;;;;;7.60;6.10;;;;;;;26.34;40.83;99119.13;5093077;28;20030;-76
2022/06/25 08:20:16;;;;;;;9.60;5.07;;;;;;;26.59;39.16;99148.34;5112028;28;20409;-79
2022/06/25 08:22:42;;;;;;;13.98;6.90;;;;;;;26.31;42.11;99142.16;5112025;28;20016;-76
2022/06/25 08:25:08;;;;;;;8.52;6.45;;;;;;;26.44;41.73;99142.22;5091810;28;20019;-77
2022/06/25 08:27:44;;;;;;;8.20;6.07;;;;;;;26.27;42.12;99104.19;5098116;28;20024;-77
2022/06/25 08:30:10;;;;;;;7.78;5.90;;;;;;;26.86;42.25;99147.97;5121400;28;20016;-77
2022/06/25 08:32:35;;;;;;;11.73;5.90;;;;;;;27.00;40.91;99131.63;5093601;28;20024;-77
2022/06/25 08:35:00;;;;;;;10.27;5.82;;;;;;;27.31;42.66;99137.59;5093313;28;20071;-77
2022/06/25 08:37:26;;;;;;;6.18;4.45;;;;;;;27.51;40.84;99145.16;5111350;28;20443;-77
2022/06/25 08:39:52;;;;;;;11.32;5.70;;;;;;;27.62;40.51;99144.84;5111759;28;20015;-77
2022/06/25 08:42:17;;;;;;;8.52;6.05;;;;;;;27.56;40.66;99147.50;5089099;28;20024;-77
2022/06/25 08:44:43;;;;;;;11.32;7.22;;;;;;;27.43;40.58;99138.06;5101343;28;20153;-78
2022/06/25 08:47:09;;;;;;;9.55;5.68;;;;;;;27.50;39.79;99148.50;5104738;28;20034;-75
2022/06/25 08:49:36;;;;;;;10.63;5.72;;;;;;;26.87;39.65;99131.56;5091384;28;20148;-79
2022/06/25 08:52:03;;;;;;;5.80;4.90;;;;;;;27.15;39.71;99129.09;5092764;28;20015;-79
2022/06/25 08:54:32;;;;;;;8.02;4.78;;;;;;;27.45;38.82;99126.91;5111714;28;20020;-79
2022/06/25 08:56:58;;;;;;;11.63;7.55;;;;;;;26.99;39.41;99122.19;5112985;28;20024;-79
2022/06/25 08:59:24;;;;;;;14.45;6.65;;;;;;;26.93;39.75;99111.75;5097031;28;20028;-80
2022/06/25 09:01:50;;;;;;;8.82;5.75;;;;;;;27.13;39.09;99114.38;5115396;28;20056;-83
2022/06/25 09:04:16;;;;;;;8.75;5.10;;;;;;;27.32;38.56;99104.75;5097252;28;20472;-82
2022/06/25 09:06:43;;;;;;;8.05;5.55;;;;;;;27.58;39.41;99115.47;5115881;28;20015;-80
2022/06/25 09:09:13;;;;;;;6.47;4.63;;;;;;;27.67;38.36;99095.44;5096696;28;20520;-82
2022/06/25 09:11:57;;;;;;;9.30;4.55;;;;;;;28.11;38.59;99111.19;5097453;28;20111;-82
2022/06/25 09:14:26;;;;;;;10.98;5.05;;;;;;;28.16;37.87;99113.47;5078124;28;20520;-82
2022/06/25 09:17:05;;;;;;;13.20;5.18;;;;;;;28.43;38.88;99109.25;5076892;28;20024;-82
2022/06/25 09:19:39;;;;;;;9.80;4.57;;;;;;;28.56;37.05;99100.53;5114248;28;20102;-79
2022/06/25 09:22:09;;;;;;;5.47;4.30;;;;;;;28.80;37.29;99120.19;5094754;28;20043;-77
2022/06/25 09:24:40;;;;;;;;;;;;;;;28.82;37.00;99106.16;5095500;28;20391;-79
2022/06/25 09:27:06;;;;;;;8.18;4.93;;;;;;;28.71;37.23;99104.47;5091417;28;20356;-78
2022/06/25 09:29:48;;;;;;;7.22;4.22;;;;;;;28.80;37.96;99100.88;5091573;28;20066;-77
2022/06/25 09:32:14;;;;;;;12.95;5.00;;;;;;;29.03;37.16;99113.19;5097267;28;20028;-75
2022/06/25 09:34:40;;;;;;;8.00;4.65;;;;;;;29.03;36.73;99104.56;5109306;28;20051;-80
2022/06/25 09:37:17;;;;;;;9.95;5.07;;;;;;;29.08;36.62;99097.34;5111979;28;20043;-84
2022/06/25 09:39:45;;;;;;;12.10;4.65;;;;;;;29.38;36.27;99101.50;5092579;28;20027;-80
2022/06/25 09:42:34;;;;;;;4.45;3.85;;;;;;;29.59;34.85;99101.91;5111429;28;20038;-79
2022/06/25 09:45:07;;;;;;;5.82;4.13;;;;;;;29.81;34.20;99086.56;5084075;27;20035;-82
2022/06/25 09:47:39;;;;;;;7.55;4.13;;;;;;;30.11;35.10;99087.75;5104067;28;20090;-85
2022/06/25 09:50:15;;;;;;;5.82;4.00;;;;;;;30.25;34.22;99097.84;5097057;28;20050;-85
2022/06/25 09:52:56;;;;;;;7.55;4.03;;;;;;;30.01;34.21;99093.97;5115434;28;20027;-85
2022/06/25 09:55:25;;;;;;;6.97;4.15;;;;;;;30.26;34.76;99098.66;5096963;28;20413;-85
2022/06/25 09:57:54;;;;;;;5.57;4.43;;;;;;;30.10;34.14;99103.47;5096206;28;20068;-85
2022/06/25 10:00:22;;;;;;;4.40;3.90;;;;;;;30.01;33.47;99102.63;5096826;28;20030;-85
2022/06/25 10:02:49;;;;;;;5.35;3.83;;;;;;;30.09;34.29;99106.81;5096613;28;20027;-85
2022/06/25 10:05:23;;;;;;;5.22;4.20;;;;;;;29.35;33.83;99108.19;5096345;28;20382;-85
2022/06/25 10:08:00;;;;;;;12.88;4.57;;;;;;;29.87;33.72;99106.91;5094960;28;20385;-86
2022/06/25 10:10:29;;;;;;;6.65;3.85;;;;;;;30.27;32.82;99094.47;5081294;28;20032;-85
2022/06/25 10:12:55;;;;;;;17.33;4.85;;;;;;;30.48;32.38;99098.50;5076176;28;20493;-86
2022/06/25 10:15:23;;;;;;;6.53;4.30;;;;;;;30.48;34.85;99097.69;5076464;28;20030;-85
2022/06/25 10:17:54;;;;;;;6.45;3.70;;;;;;;30.51;35.09;99096.69;5081360;28;20028;-85
2022/06/25 10:20:21;;;;;;;9.30;4.55;;;;;;;30.56;35.89;99095.25;5075927;28;20462;-85
2022/06/25 10:22:48;;;;;;;8.85;5.25;;;;;;;30.38;34.56;99073.81;5107365;28;20452;-85
2022/06/25 10:25:17;;;;;;;10.05;4.60;;;;;;;30.56;35.08;99096.06;5096430;28;20023;-86
2022/06/25 10:27:44;;;;;;;13.30;4.22;;;;;;;30.59;32.90;99079.84;5095955;28;20047;-85
2022/06/25 10:30:12;;;;;;;5.47;4.72;;;;;;;30.94;32.11;99088.97;5114470;28;20044;-86
2022/06/25 10:32:45;;;;;;;9.70;5.25;;;;;;;31.15;33.75;99086.31;5114401;28;20462;-85
2022/06/25 10:35:30;;;;;;;10.18;5.25;;;;;;;30.85;33.32;99077.44;5095299;28;20072;-86
2022/06/25 10:38:10;;;;;;;8.77;4.65;;;;;;;30.62;33.83;99082.59;5075213;28;20085;-85
2022/06/25 10:40:47;;;;;;;;;;;;;;;31.10;34.17;99084.06;5114141;28;20023;-85
2022/06/25 10:43:34;;;;;;;7.68;4.95;;;;;;;31.24;33.09;99083.41;5095396;28;20301;-85
2022/06/25 10:46:24;;;;;;;7.85;5.25;;;;;;;31.28;33.17;99065.13;5075316;28;20036;-85
2022/06/25 10:48:50;;;;;;;4.63;4.22;;;;;;;31.34;33.02;99075.50;5091644;28;20085;-86
2022/06/25 10:51:28;;;;;;;4.30;3.92;;;;;;;31.10;33.84;99072.53;5095746;28;20034;-85
2022/06/25 10:54:02;;;;;;;6.50;4.82;;;;;;;31.05;33.16;99081.88;5113569;28;20055;-85
2022/06/25 10:56:42;;;;;;;11.85;4.30;;;;;;;31.12;33.53;99075.72;5095468;28;20016;-86
2022/06/25 10:59:07;;;;;;;6.72;4.88;;;;;;;31.18;32.38;99061.44;5091509;28;20073;-86
2022/06/25 11:01:34;;;;;;;7.93;4.40;;;;;;;31.50;32.19;99074.31;5075589;28;20028;-86
2022/06/25 11:04:03;;;;;;;13.23;5.10;;;;;;;31.71;31.61;99070.81;5093030;28;20566;-86
2022/06/25 11:06:36;;;;;;;6.38;4.25;;;;;;;31.70;31.70;99066.31;5095209;28;20185;-85
2022/06/25 11:09:19;;;;;;;10.77;4.82;;;;;;;31.59;31.63;99049.53;5107105;28;20020;-84
2022/06/25 11:11:47;;;;;;;4.43;4.03;;;;;;;31.60;31.39;99042.44;5074811;28;20497;-85
2022/06/25 11:14:16;;;;;;;8.63;4.50;;;;;;;31.55;30.67;99055.47;5091449;28;20409;-85
2022/06/25 11:16:41;;;;;;;7.63;4.35;;;;;;;31.74;30.93;99055.38;5094984;28;20508;-86
2022/06/25 11:19:07;;;;;;;8.90;4.75;;;;;;;31.92;31.64;99045.78;5093996;28;20024;-86
2022/06/25 11:21:41;;;;;;;5.05;4.57;;;;;;;31.97;30.66;99056.66;5091609;28;20031;-79
2022/06/25 11:24:23;;;;;;;10.20;5.60;;;;;;;32.21;30.48;99055.81;5091775;28;20024;-79
2022/06/25 11:29:41;;;;;;;9.63;4.70;;;;;;;32.53;30.09;99046.72;5093177;28;20111;-83
2022/06/25 11:32:08;;;;;;;5.78;5.20;;;;;;;32.28;30.58;99032.31;5074890;28;20039;-84
2022/06/25 11:34:34;;;;;;;7.38;4.88;;;;;;;32.21;29.84;99038.47;5092482;28;20020;-83
2022/06/25 11:37:10;;;;;;;9.40;4.75;;;;;;;32.06;30.50;99033.47;5093038;28;20481;-84
2022/06/25 11:39:37;;;;;;;5.32;4.82;;;;;;;32.22;30.38;99031.41;5103318;28;20031;-79
2022/06/25 11:42:07;;;;;;;7.47;4.38;;;;;;;32.16;30.53;99024.72;5090882;28;20405;-79
2022/06/25 11:44:45;;;;;;;9.10;4.68;;;;;;;32.16;30.14;99030.50;5092803;28;20076;-79
2022/06/25 11:47:26;;;;;;;9.18;5.10;;;;;;;31.91;30.10;99018.19;5074072;28;20028;-79
2022/06/25 11:49:52;;;;;;;8.60;5.03;;;;;;;32.17;31.18;99003.16;5105778;28;20485;-79
2022/06/25 11:52:23;;;;;;;9.98;4.68;;;;;;;32.13;31.28;99003.34;5094054;28;20073;-84
2022/06/25 11:54:51;;;;;;;8.75;5.22;;;;;;;32.29;31.43;98999.19;5094370;28;20493;-84